Map

Track Data

SID SEASON NUMBER BASIN SUBBASIN NAME ISO_TIME NATURE LAT LON WMO_WIND WMO_PRES WMO_AGENCY TRACK_TYPE DIST2LAND LANDFALL IFLAG USA_AGENCY USA_ATCF_ID USA_LAT USA_LON USA_RECORD USA_STATUS USA_WIND USA_PRES USA_SSHS USA_R34_NE USA_R34_SE USA_R34_SW USA_R34_NW USA_R50_NE USA_R50_SE USA_R50_SW USA_R50_NW USA_R64_NE USA_R64_SE USA_R64_SW USA_R64_NW USA_POCI USA_ROCI USA_RMW USA_EYE TOKYO_LAT TOKYO_LON TOKYO_GRADE TOKYO_WIND TOKYO_PRES TOKYO_R50_DIR TOKYO_R50_LONG TOKYO_R50_SHORT TOKYO_R30_DIR TOKYO_R30_LONG TOKYO_R30_SHORT TOKYO_LAND CMA_LAT CMA_LON CMA_CAT CMA_WIND CMA_PRES HKO_LAT HKO_LON HKO_CAT HKO_WIND HKO_PRES NEWDELHI_LAT NEWDELHI_LON NEWDELHI_GRADE NEWDELHI_WIND NEWDELHI_PRES NEWDELHI_CI NEWDELHI_DP NEWDELHI_POCI REUNION_LAT REUNION_LON REUNION_TYPE REUNION_WIND REUNION_PRES REUNION_TNUM REUNION_CI REUNION_RMW REUNION_R34_NE REUNION_R34_SE REUNION_R34_SW REUNION_R34_NW REUNION_R50_NE REUNION_R50_SE REUNION_R50_SW REUNION_R50_NW REUNION_R64_NE REUNION_R64_SE REUNION_R64_SW REUNION_R64_NW BOM_LAT BOM_LON BOM_TYPE BOM_WIND BOM_PRES BOM_TNUM BOM_CI BOM_RMW BOM_R34_NE BOM_R34_SE BOM_R34_SW BOM_R34_NW BOM_R50_NE BOM_R50_SE BOM_R50_SW BOM_R50_NW BOM_R64_NE BOM_R64_SE BOM_R64_SW BOM_R64_NW BOM_ROCI BOM_POCI BOM_EYE BOM_POS_METHOD BOM_PRES_METHOD NADI_LAT NADI_LON NADI_CAT NADI_WIND NADI_PRES WELLINGTON_LAT WELLINGTON_LON WELLINGTON_WIND WELLINGTON_PRES DS824_LAT DS824_LON DS824_STAGE DS824_WIND DS824_PRES TD9636_LAT TD9636_LON TD9636_STAGE TD9636_WIND TD9636_PRES TD9635_LAT TD9635_LON TD9635_WIND TD9635_PRES TD9635_ROCI NEUMANN_LAT NEUMANN_LON NEUMANN_CLASS NEUMANN_WIND NEUMANN_PRES MLC_LAT MLC_LON MLC_CLASS MLC_WIND MLC_PRES USA_GUST BOM_GUST BOM_GUST_PER REUNION_GUST REUNION_GUST_PER USA_SEAHGT USA_SEARAD_NE USA_SEARAD_SE USA_SEARAD_SW USA_SEARAD_NW STORM_SPEED STORM_DIR
1905239N16148 1905 35 WP MM NOT_NAMED 1905-08-26 16:00:00 NR 15.9000 148.000 main 2017 2016 __________O___ -1 15.9000 148.000 7 20 273
1905239N16148 1905 35 WP MM NOT_NAMED 1905-08-26 18:00:00 NR 15.9381 147.312 main 2016 2016 __________P___ -1 15.9381 147.312 7 20 273
1905239N16148 1905 35 WP MM NOT_NAMED 1905-08-26 21:00:00 NR 15.9913 146.300 main 2027 2028 __________P___ -1 15.9913 146.300 7 19 273
1905239N16148 1905 35 WP MM NOT_NAMED 1905-08-27 00:00:00 NR 16.0400 145.341 main 2032 2032 __________P___ -1 16.0400 145.341 7 18 273
1905239N16148 1905 35 WP MM NOT_NAMED 1905-08-27 03:00:00 NR 16.0854 144.467 main 2051 2053 __________P___ -1 16.0854 144.467 7 16 273
1905239N16148 1905 35 WP MM NOT_NAMED 1905-08-27 04:00:00 NR 16.1000 144.200 main 2055 2010 __________O___ -1 16.1000 144.200 7 15 273
1905239N16148 1905 35 WP MM NOT_NAMED 1905-08-27 06:00:00 NR 16.1289 143.706 main 2010 1938 __________P___ -1 16.1289 143.706 7 13 274
1905239N16148 1905 35 WP MM NOT_NAMED 1905-08-27 09:00:00 NR 16.1736 143.041 main 1938 1876 __________P___ -1 16.1736 143.041 7 12 274
1905239N16148 1905 35 WP MM NOT_NAMED 1905-08-27 12:00:00 NR 16.2228 142.425 main 1876 1815 __________P___ -1 16.2228 142.425 7 12 275
1905239N16148 1905 35 WP MM NOT_NAMED 1905-08-27 15:00:00 NR 16.2792 141.812 main 1815 1794 __________P___ -1 16.2792 141.812 7 12 276
1905239N16148 1905 35 WP MM NOT_NAMED 1905-08-27 16:00:00 NR 16.3000 141.600 main 1794 1742 __________O___ -1 16.3000 141.600 7 13 275
1905239N16148 1905 35 WP MM NOT_NAMED 1905-08-27 18:00:00 NR 16.3310 141.128 main 1742 1672 __________P___ -1 16.3310 141.128 7 14 274
1905239N16148 1905 35 WP MM NOT_NAMED 1905-08-27 21:00:00 NR 16.3837 140.402 main 1672 1600 __________P___ -1 16.3837 140.402 7 14 275
1905239N16148 1905 35 WP MM NOT_NAMED 1905-08-28 00:00:00 NR 16.4548 139.666 main 1603 1525 __________P___ -1 16.4548 139.666 7 14 277
1905239N16148 1905 35 WP MM NOT_NAMED 1905-08-28 03:00:00 NR 16.5569 138.938 main 1525 1504 __________P___ -1 16.5569 138.938 7 14 279
1905239N16148 1905 35 WP MM NOT_NAMED 1905-08-28 04:00:00 NR 16.6000 138.700 main 1504 1457 __________O___ -1 16.6000 138.700 7 14 281
1905239N16148 1905 35 WP MM NOT_NAMED 1905-08-28 06:00:00 NR 16.6885 138.236 main 1457 1400 __________P___ -1 16.6885 138.236 7 14 283
1905239N16148 1905 35 WP MM NOT_NAMED 1905-08-28 09:00:00 NR 16.8528 137.552 main 1404 1339 __________P___ -1 16.8528 137.552 7 14 286
1905239N16148 1905 35 WP MM NOT_NAMED 1905-08-28 12:00:00 NR 17.0579 136.880 main 1343 1284 __________P___ -1 17.0579 136.880 7 14 290
1905239N16148 1905 35 WP MM NOT_NAMED 1905-08-28 15:00:00 NR 17.3068 136.219 main 1284 1270 __________P___ -1 17.3068 136.219 7 14 292
1905239N16148 1905 35 WP MM NOT_NAMED 1905-08-28 16:00:00 NR 17.4000 136.000 main 1270 1232 __________O___ -1 17.4000 136.000 7 14 295
1905239N16148 1905 35 WP MM NOT_NAMED 1905-08-28 18:00:00 NR 17.6094 135.543 main 1232 1194 __________P___ -1 17.6094 135.543 7 15 297
1905239N16148 1905 35 WP MM NOT_NAMED 1905-08-28 21:00:00 NR 17.9619 134.864 main 1199 1156 __________P___ -1 17.9619 134.864 7 15 300
1905239N16148 1905 35 WP MM NOT_NAMED 1905-08-29 00:00:00 NR 18.3323 134.207 main 1156 1119 __________P___ -1 18.3323 134.207 7 14 301
1905239N16148 1905 35 WP MM NOT_NAMED 1905-08-29 03:00:00 NR 18.6894 133.592 main 1119 1105 __________P___ -1 18.6894 133.592 7 13 301
1905239N16148 1905 35 WP MM NOT_NAMED 1905-08-29 04:00:00 NR 18.8000 133.400 main 1105 1080 __________O___ -1 18.8000 133.400 7 12 300
1905239N16148 1905 35 WP MM NOT_NAMED 1905-08-29 06:00:00 NR 18.9834 133.045 main 1080 1056 __________P___ -1 18.9834 133.045 7 11 299
1905239N16148 1905 35 WP MM NOT_NAMED 1905-08-29 09:00:00 NR 19.2338 132.557 main 1056 1031 __________P___ -1 19.2338 132.557 7 10 299
1905239N16148 1905 35 WP MM NOT_NAMED 1905-08-29 12:00:00 NR 19.4713 132.102 main 1031 998 __________P___ -1 19.4713 132.102 7 10 299
1905239N16148 1905 35 WP MM NOT_NAMED 1905-08-29 15:00:00 NR 19.7145 131.653 main 998 979 __________P___ -1 19.7145 131.653 7 10 300
1905239N16148 1905 35 WP MM NOT_NAMED 1905-08-29 16:00:00 NR 19.8000 131.500 main 979 949 __________O___ -1 19.8000 131.500 4 11 300
1905239N16148 1905 35 WP MM NOT_NAMED 1905-08-29 18:00:00 NR 19.9806 131.167 main 951 904 __________P___ -1 19.9806 131.167 4 11 300
1905239N16148 1905 35 WP MM NOT_NAMED 1905-08-29 21:00:00 NR 20.2640 130.661 main 906 860 __________P___ -1 20.2640 130.661 4 11 302
1905239N16148 1905 35 WP MM NOT_NAMED 1905-08-30 00:00:00 NR 20.5653 130.156 main 863 820 __________P___ -1 20.5653 130.156 4 11 304
1905239N16148 1905 35 WP MM NOT_NAMED 1905-08-30 03:00:00 NR 20.8874 129.661 main 823 807 __________P___ -1 20.8874 129.661 4 11 305
1905239N16148 1905 35 WP MM NOT_NAMED 1905-08-30 04:00:00 NR 21.0000 129.500 main 807 786 __________O___ -1 21.0000 129.500 4 11 307
1905239N16148 1905 35 WP MM NOT_NAMED 1905-08-30 06:00:00 NR 21.2220 129.188 main 786 758 __________P___ -1 21.2220 129.188 4 11 309
1905239N16148 1905 35 WP MM NOT_NAMED 1905-08-30 09:00:00 NR 21.5740 128.733 main 758 710 __________P___ -1 21.5740 128.733 4 11 311
1905239N16148 1905 35 WP MM NOT_NAMED 1905-08-30 12:00:00 NR 21.9515 128.288 main 710 645 __________P___ -1 21.9515 128.288 4 11 314
1905239N16148 1905 35 WP MM NOT_NAMED 1905-08-30 15:00:00 NR 22.3577 127.847 main 645 631 __________P___ -1 22.3577 127.847 4 12 315
1905239N16148 1905 35 WP MM NOT_NAMED 1905-08-30 16:00:00 NR 22.5000 127.700 main 631 591 __________O___ -1 22.5000 127.700 4 12 316
1905239N16148 1905 35 WP MM NOT_NAMED 1905-08-30 18:00:00 NR 22.8017 127.387 main 591 525 __________P___ -1 22.8017 127.387 4 13 317
1905239N16148 1905 35 WP MM NOT_NAMED 1905-08-30 21:00:00 NR 23.2797 126.917 main 525 472 __________P___ -1 23.2797 126.917 4 13 319
1905239N16148 1905 35 WP MM NOT_NAMED 1905-08-31 00:00:00 NR 23.7687 126.461 main 472 413 __________P___ -1 23.7687 126.461 4 13 320
1905239N16148 1905 35 WP MM NOT_NAMED 1905-08-31 03:00:00 NR 24.2468 126.033 main 413 399 __________P___ -1 24.2468 126.033 4 12 321
1905239N16148 1905 35 WP MM NOT_NAMED 1905-08-31 04:00:00 NR 24.4000 125.900 main 399 364 __________O___ -1 24.4000 125.900 4 11 321
1905239N16148 1905 35 WP MM NOT_NAMED 1905-08-31 06:00:00 NR 24.6807 125.649 main 364 332 __________P___ -1 24.6807 125.649 4 11 322
1905239N16148 1905 35 WP MM NOT_NAMED 1905-08-31 09:00:00 NR 25.0832 125.304 main 332 304 __________P___ -1 25.0832 125.304 4 10 323
1905239N16148 1905 35 WP MM NOT_NAMED 1905-08-31 12:00:00 NR 25.4745 124.989 main 306 285 __________P___ -1 25.4745 124.989 4 10 325
1905239N16148 1905 35 WP MM NOT_NAMED 1905-08-31 15:00:00 NR 25.8669 124.695 main 288 279 __________P___ -1 25.8669 124.695 4 10 326
1905239N16148 1905 35 WP MM NOT_NAMED 1905-08-31 16:00:00 NR 26.0000 124.600 main 283 275 __________O___ -1 26.0000 124.600 4 10 328
1905239N16148 1905 35 WP MM NOT_NAMED 1905-08-31 18:00:00 NR 26.2717 124.412 main 280 276 __________P___ -1 26.2717 124.412 4 10 329
1905239N16148 1905 35 WP MM NOT_NAMED 1905-08-31 21:00:00 NR 26.6909 124.136 main 283 262 __________P___ -1 26.6909 124.136 4 10 330
1905239N16148 1905 35 WP MM NOT_NAMED 1905-09-01 00:00:00 NR 27.1201 123.863 main 262 211 __________P___ -1 27.1201 123.863 4 10 331
1905239N16148 1905 35 WP MM NOT_NAMED 1905-09-01 03:00:00 NR 27.5547 123.591 main 211 198 __________P___ -1 27.5547 123.591 4 10 331
1905239N16148 1905 35 WP MM NOT_NAMED 1905-09-01 04:00:00 NR 27.7000 123.500 main 198 __________O___ -1 27.7000 123.500 4 10 333

Digital Typhoon Data and Search

About IBTrACS Database

This database is a web-friendly format of International Best Track Archive for Climate Stewardship (IBTrACS), a global best track data archive curated by NOAA dating back to 1842.

Updated: 2021-10-21